Time;durP1;ratioP1;P1;durP2;ratioP2;P2;SDS_P1;SDS_P2;PMS_P1;PMS_P2;Temp;Humidity;BMP_temperature;BMP_pressure;BME280_temperature;BME280_humidity;BME280_pressure;Samples;Min_cycle;Max_cycle;Signal;HPM_P1;HPM_P2
2022/06/15 00:00:25;;;;;;;6.45;3.38;;;13.90;99.90;;;;;;6257905;22;20019;-91
2022/06/15 00:02:51;;;;;;;6.50;3.37;;;13.90;99.90;;;;;;6257303;22;20090;-90
2022/06/15 00:05:39;;;;;;;7.00;3.50;;;13.90;99.90;;;;;;6257158;22;20249;-90
2022/06/15 00:08:05;;;;;;;5.68;2.78;;;13.90;99.90;;;;;;6256905;22;20303;-89
2022/06/15 00:10:32;;;;;;;;;;;13.90;99.90;;;;;;6257471;22;20062;-89
2022/06/15 00:12:58;;;;;;;6.18;3.63;;;13.80;99.90;;;;;;6256645;22;19914;-91
2022/06/15 00:15:24;;;;;;;6.47;3.38;;;13.70;99.90;;;;;;6257144;22;20018;-92
2022/06/15 00:17:50;;;;;;;6.28;3.13;;;13.70;99.90;;;;;;6257206;22;20042;-91
2022/06/15 00:20:15;;;;;;;6.17;2.93;;;13.70;99.90;;;;;;6257006;22;20345;-93
2022/06/15 00:22:41;;;;;;;4.77;2.50;;;13.60;99.90;;;;;;6257045;22;20285;-95
2022/06/15 00:25:09;;;;;;;4.38;1.77;;;13.50;99.90;;;;;;6257031;22;20246;-96
2022/06/15 00:27:35;;;;;;;5.55;2.47;;;13.40;99.90;;;;;;6257240;22;20072;-96
2022/06/15 00:30:02;;;;;;;5.78;2.88;;;13.40;99.90;;;;;;6256993;22;20019;-94
2022/06/15 00:32:28;;;;;;;6.57;2.80;;;13.30;99.90;;;;;;6257260;22;20023;-94
2022/06/15 00:34:54;;;;;;;6.00;3.37;;;13.30;99.90;;;;;;6257070;22;20394;-95
2022/06/15 00:37:19;;;;;;;6.20;3.20;;;13.20;99.90;;;;;;6256747;22;20272;-93
2022/06/15 00:39:45;;;;;;;6.03;2.90;;;13.20;99.90;;;;;;6257138;22;20098;-93
2022/06/15 00:42:14;;;;;;;5.03;2.50;;;13.20;99.90;;;;;;6256674;22;20026;-95
2022/06/15 00:44:42;;;;;;;4.75;2.67;;;13.20;99.90;;;;;;6282499;22;20022;-94
2022/06/15 00:47:22;;;;;;;5.20;2.75;;;13.20;99.90;;;;;;6256577;22;20343;-94
2022/06/15 00:49:53;;;;;;;6.20;2.97;;;13.20;99.90;;;;;;6256347;22;20019;-93
2022/06/15 00:52:33;;;;;;;5.07;2.80;;;13.10;99.90;;;;;;6256409;22;20022;-93
2022/06/15 00:55:01;;;;;;;5.97;3.33;;;13.20;99.90;;;;;;6256780;22;20019;-92
2022/06/15 00:57:28;;;;;;;5.65;2.65;;;13.20;99.90;;;;;;6282025;22;20015;-94
2022/06/15 00:59:57;;;;;;;5.55;2.70;;;13.30;99.90;;;;;;6281873;22;20019;-93
2022/06/15 01:06:51;;;;;;;5.53;2.55;;;13.20;99.90;;;;;;6059393;23;20027;-91
2022/06/15 01:09:30;;;;;;;5.47;2.58;;;13.20;99.90;;;;;;5991490;23;20023;-94
2022/06/15 01:12:38;;;;;;;5.10;2.30;;;13.10;99.90;;;;;;6095359;23;20013;-94
2022/06/15 01:15:47;;;;;;;5.28;2.45;;;13.10;99.90;;;;;;6180748;22;20022;-93
2022/06/15 01:18:21;;;;;;;4.53;2.45;;;13.10;99.90;;;;;;6256361;22;20015;-94
2022/06/15 01:21:14;;;;;;;4.72;2.40;;;13.10;99.90;;;;;;6256390;22;20011;-91
2022/06/15 01:23:55;;;;;;;4.57;2.33;;;13.10;99.90;;;;;;6256446;22;20071;-91
2022/06/15 01:30:49;;;;;;;4.40;2.10;;;13.00;99.90;;;;;;6309451;22;20060;-93
2022/06/15 01:33:41;;;;;;;4.47;2.08;;;12.90;99.90;;;;;;6282172;22;20030;-95
2022/06/15 01:36:20;;;;;;;6.47;2.05;;;12.90;99.90;;;;;;6256593;22;20015;-95
2022/06/15 01:38:54;;;;;;;4.68;2.05;;;12.90;99.90;;;;;;6256604;22;20011;-96
2022/06/15 02:09:50;;;;;;;4.50;2.15;;;12.50;99.90;;;;;;6216782;22;20017;-92
2022/06/15 02:12:24;;;;;;;5.63;2.40;;;12.50;99.90;;;;;;6189870;23;20024;-92
2022/06/15 02:14:54;;;;;;;5.80;2.47;;;12.50;99.90;;;;;;6190427;23;20462;-91
2022/06/15 02:17:31;;;;;;;6.13;2.38;;;12.50;99.90;;;;;;6190333;23;20017;-93
2022/06/15 02:20:46;;;;;;;4.85;2.40;;;12.40;99.90;;;;;;6190327;23;20095;-92
2022/06/15 02:23:57;;;;;;;4.75;2.38;;;12.50;99.90;;;;;;6179007;23;20013;-92
2022/06/15 02:26:42;;;;;;;4.75;2.42;;;12.40;99.90;;;;;;6190517;23;20019;-92
2022/06/15 02:29:30;;;;;;;5.30;2.40;;;12.50;99.90;;;;;;6190477;23;20024;-91
2022/06/15 02:31:57;;;;;;;5.03;2.35;;;12.50;99.90;;;;;;6190287;23;20016;-92
2022/06/15 02:34:23;;;;;;;4.68;2.30;;;12.50;99.90;;;;;;6190236;23;20342;-93
2022/06/15 02:36:54;;;;;;;3.90;2.03;;;12.50;99.90;;;;;;6190543;23;20012;-92
2022/06/15 02:44:21;;;;;;;2.85;1.35;;;12.40;99.90;;;;;;6216798;22;20027;-92
2022/06/15 02:46:48;;;;;;;3.37;1.20;;;12.40;99.90;;;;;;6190684;23;20023;-94
2022/06/15 02:49:14;;;;;;;2.20;0.88;;;12.30;99.90;;;;;;6194150;23;20250;-92
2022/06/15 02:51:50;;;;;;;1.42;0.73;;;12.30;99.90;;;;;;6204117;23;20012;-94
2022/06/15 02:54:24;;;;;;;1.85;0.80;;;12.30;99.90;;;;;;6192980;23;20020;-92
2022/06/15 02:56:50;;;;;;;1.33;0.65;;;12.30;99.90;;;;;;6190197;23;20092;-92
2022/06/15 02:59:16;;;;;;;2.15;0.90;;;12.30;99.90;;;;;;6190442;23;20350;-92
2022/06/15 03:01:42;;;;;;;1.83;0.80;;;12.30;99.90;;;;;;6190329;23;20013;-92
2022/06/15 03:04:08;;;;;;;2.70;1.30;;;12.20;99.90;;;;;;6190127;23;20517;-92
2022/06/15 03:11:45;;;;;;;3.45;1.10;;;12.40;99.90;;;;;;6215887;22;20024;-93
2022/06/15 03:16:49;;;;;;;2.45;1.23;;;12.30;99.90;;;;;;6252599;22;20066;-91
2022/06/15 03:19:57;;;;;;;3.03;1.40;;;12.40;99.90;;;;;;6225255;22;20038;-91
2022/06/15 03:22:35;;;;;;;2.83;1.48;;;12.40;99.90;;;;;;6217618;22;20099;-91
2022/06/15 03:25:01;;;;;;;2.88;1.42;;;12.40;99.90;;;;;;6224992;22;20043;-91
2022/06/15 03:27:27;;;;;;;4.35;1.73;;;12.40;99.90;;;;;;6226174;22;20444;-91
2022/06/15 03:30:20;;;;;;;4.33;1.87;;;12.40;99.90;;;;;;6224648;22;20022;-91
2022/06/15 03:41:43;;;;;;;4.63;2.15;;;12.50;99.90;;;;;;6264982;22;20043;-92
2022/06/15 03:44:10;;;;;;;4.45;2.20;;;12.60;99.90;;;;;;6234066;22;20020;-88
2022/06/15 03:49:21;;;;;;;;;;;;;;;;;;;;;
2022/06/15 03:51:49;;;;;;;4.90;2.28;;;12.60;99.90;;;;;;6245348;23;20048;-93
2022/06/15 04:14:58;;;;;;;4.68;1.83;;;12.90;99.90;;;;;;6215825;22;20021;-92
2022/06/15 04:17:24;;;;;;;5.53;1.80;;;12.90;99.90;;;;;;6189909;23;20033;-93
2022/06/15 04:20:31;;;;;;;3.10;1.63;;;13.00;99.90;;;;;;6190172;23;20011;-93
2022/06/15 04:33:16;;;;;;;4.50;2.30;;;12.90;99.90;;;;;;6216135;22;20028;-90
2022/06/15 04:35:42;;;;;;;4.47;2.30;;;12.90;99.90;;;;;;6166422;23;20017;-92
2022/06/15 04:38:09;;;;;;;5.03;2.50;;;12.90;99.90;;;;;;6166635;23;20431;-93
2022/06/15 04:40:37;;;;;;;6.00;2.47;;;12.90;99.90;;;;;;6166444;23;20020;-91
2022/06/15 04:43:05;;;;;;;5.82;2.25;;;12.90;99.90;;;;;;6166334;23;20319;-91
2022/06/15 04:48:12;;;;;;;5.20;2.22;;;13.00;99.90;;;;;;6250650;22;20028;-93
2022/06/15 04:50:38;;;;;;;5.22;2.50;;;13.00;99.90;;;;;;6257179;22;20445;-93
2022/06/15 04:53:05;;;;;;;5.25;2.35;;;13.00;99.90;;;;;;6262649;22;20012;-88
2022/06/15 04:55:32;;;;;;;4.45;1.85;;;13.10;99.90;;;;;;6263374;22;20247;-90
2022/06/15 04:57:59;;;;;;;4.93;2.45;;;13.10;99.90;;;;;;6255768;22;20019;-91
2022/06/15 05:00:26;;;;;;;;;;;13.20;99.90;;;;;;6257243;22;20432;-89
2022/06/15 05:02:52;;;;;;;5.13;2.40;;;13.20;99.90;;;;;;6257172;22;19985;-89
2022/06/15 05:05:18;;;;;;;5.30;2.30;;;13.30;99.90;;;;;;6256931;22;20019;-90
2022/06/15 05:07:45;;;;;;;4.45;2.17;;;13.30;99.90;;;;;;6257105;22;20069;-91
2022/06/15 05:10:21;;;;;;;5.05;2.08;;;13.40;99.90;;;;;;6256698;22;20061;-88
2022/06/15 05:12:47;;;;;;;4.93;2.42;;;13.40;99.90;;;;;;6256566;22;20042;-89
2022/06/15 05:15:14;;;;;;;4.95;2.35;;;13.40;99.90;;;;;;6256602;22;20022;-89
2022/06/15 05:17:45;;;;;;;5.20;2.00;;;13.50;99.90;;;;;;6256314;22;20056;-91
2022/06/15 05:20:14;;;;;;;5.75;2.35;;;13.60;99.90;;;;;;6282392;22;20094;-89
2022/06/15 05:22:40;;;;;;;4.10;1.95;;;13.60;99.90;;;;;;6256118;22;20043;-89
2022/06/15 05:29:42;;;;;;;5.18;2.80;;;13.70;99.90;;;;;;6180788;23;20028;-92
2022/06/15 05:32:09;;;;;;;4.53;1.90;;;13.80;99.90;;;;;;6145237;22;20013;-91
2022/06/15 05:34:35;;;;;;;4.65;2.03;;;13.90;99.90;;;;;;6256829;22;20022;-92
2022/06/15 05:37:33;;;;;;;5.25;2.00;;;14.00;99.90;;;;;;6256001;22;20023;-90
2022/06/15 05:42:38;;;;;;;5.53;2.22;;;14.10;99.90;;;;;;6308587;22;20019;-90
2022/06/15 05:45:05;;;;;;;5.25;2.35;;;14.10;99.90;;;;;;6256371;22;20030;-93
2022/06/15 05:47:34;;;;;;;;;;;14.10;99.90;;;;;;6256282;22;20022;-95
2022/06/15 05:50:34;;;;;;;4.65;2.40;;;14.20;99.90;;;;;;6256755;22;19922;-92
2022/06/15 05:53:00;;;;;;;4.35;2.33;;;14.20;99.90;;;;;;6102128;23;20108;-92
2022/06/15 05:55:54;;;;;;;5.03;2.63;;;14.40;99.90;;;;;;6249251;22;20046;-92
2022/06/15 05:58:21;;;;;;;6.32;2.03;;;14.50;99.90;;;;;;6255682;22;20060;-92
2022/06/15 06:00:46;;;;;;;4.80;2.63;;;14.70;99.90;;;;;;6255882;22;20064;-92
2022/06/15 06:03:13;;;;;;;8.20;2.97;;;14.80;99.90;;;;;;6256274;22;20027;-92
2022/06/15 06:44:45;;;;;;;3.72;1.50;;;16.20;99.90;;;;;;6242675;22;20027;-91
2022/06/15 06:48:01;;;;;;;;;;;;;;;;;;;;;
2022/06/15 08:24:51;;;;;;;4.53;1.35;;;17.80;99.90;;;;;;6278805;22;20150;-93
2022/06/15 08:27:58;;;;;;;2.13;0.80;;;17.70;99.90;;;;;;6221413;23;20511;-93
2022/06/15 08:30:27;;;;;;;2.22;0.80;;;17.70;99.90;;;;;;6206267;23;20322;-94
2022/06/15 08:32:53;;;;;;;2.25;0.70;;;17.70;99.90;;;;;;6221679;23;20023;-94
2022/06/15 08:36:07;;;;;;;2.67;0.80;;;17.80;99.90;;;;;;6221539;23;20013;-94
2022/06/15 08:38:51;;;;;;;1.73;0.70;;;17.80;99.90;;;;;;6222260;23;20038;-93
2022/06/15 09:02:44;;;;;;;3.63;1.10;;;18.10;99.90;;;;;;6249200;22;20027;-90
2022/06/15 09:33:47;;;;;;;2.30;0.90;;;18.00;99.90;;;;;;6277207;22;20099;-93
2022/06/15 09:36:17;;;;;;;3.22;1.02;;;18.00;99.90;;;;;;6224425;23;20350;-90
2022/06/15 09:38:43;;;;;;;1.75;0.65;;;17.90;99.90;;;;;;6222256;23;20448;-91
2022/06/15 09:41:22;;;;;;;1.92;0.75;;;17.90;99.90;;;;;;6254665;23;20123;-92
2022/06/15 09:43:55;;;;;;;2.65;0.95;;;17.90;99.90;;;;;;6232189;23;20067;-91
2022/06/15 09:46:42;;;;;;;3.05;0.88;;;17.90;99.90;;;;;;6222868;23;20020;-93
2022/06/15 09:49:27;;;;;;;1.75;0.68;;;17.90;99.90;;;;;;6221865;23;20024;-91
2022/06/15 09:52:04;;;;;;;2.22;0.60;;;18.00;99.90;;;;;;6224116;23;20442;-91
2022/06/15 09:55:00;;;;;;;2.03;0.57;;;18.10;99.90;;;;;;6226961;23;20063;-96
2022/06/15 09:57:26;;;;;;;2.45;0.65;;;18.20;99.90;;;;;;6222526;23;20027;-90
2022/06/15 09:59:52;;;;;;;1.42;0.60;;;18.30;99.90;;;;;;6228059;23;20016;-92
2022/06/15 10:02:41;;;;;;;2.28;0.93;;;18.40;99.90;;;;;;6221794;23;20012;-91
2022/06/15 10:05:23;;;;;;;1.95;0.90;;;18.40;99.90;;;;;;6221074;23;20020;-91
2022/06/15 10:07:51;;;;;;;2.85;0.90;;;18.50;99.90;;;;;;6220958;23;20012;-90
2022/06/15 10:10:28;;;;;;;3.72;1.25;;;18.60;99.90;;;;;;6250252;23;20016;-91
2022/06/15 10:13:23;;;;;;;1.88;0.82;;;18.80;99.90;;;;;;6226751;23;20023;-91
2022/06/15 10:16:17;;;;;;;2.22;0.70;;;18.80;99.90;;;;;;6228037;23;20016;-93
2022/06/15 10:18:44;;;;;;;2.25;0.80;;;18.90;99.90;;;;;;6222240;23;20016;-90
2022/06/15 10:21:15;;;;;;;1.75;0.75;;;19.00;99.90;;;;;;6226737;23;20020;-90
2022/06/15 10:24:02;;;;;;;3.42;0.70;;;19.10;99.90;;;;;;6224459;23;20020;-89
2022/06/15 10:26:41;;;;;;;2.28;0.80;;;19.20;99.90;;;;;;6223573;23;20027;-89
2022/06/15 10:29:22;;;;;;;2.33;0.98;;;19.20;99.90;;;;;;6224598;23;20027;-90
2022/06/15 10:32:08;;;;;;;1.52;0.90;;;19.30;99.90;;;;;;6248646;23;20429;-91
2022/06/15 10:34:46;;;;;;;1.88;0.88;;;19.30;99.90;;;;;;6228615;23;20020;-89
2022/06/15 10:37:50;;;;;;;3.08;0.90;;;19.40;99.90;;;;;;6225665;23;20089;-90
2022/06/15 10:40:22;;;;;;;2.50;1.00;;;19.50;99.90;;;;;;6225392;23;20095;-91
2022/06/15 10:43:14;;;;;;;3.08;0.98;;;19.50;99.90;;;;;;6253111;23;20020;-89
2022/06/15 10:46:02;;;;;;;2.13;0.77;;;19.40;99.90;;;;;;6248085;23;20020;-93
2022/06/15 10:48:36;;;;;;;2.83;1.08;;;19.40;99.90;;;;;;6247471;23;20071;-90
2022/06/15 10:51:13;;;;;;;3.95;1.10;;;19.30;99.90;;;;;;6233852;23;20091;-90
2022/06/15 10:54:11;;;;;;;2.13;0.85;;;19.20;99.90;;;;;;6224141;23;20016;-90
2022/06/15 11:03:04;;;;;;;3.35;1.08;;;19.10;99.90;;;;;;6248840;23;20024;-93
2022/06/15 11:13:56;;;;;;;2.58;1.00;;;19.70;99.90;;;;;;6216172;22;20052;-91
2022/06/15 11:19:30;;;;;;;3.15;1.58;;;19.90;99.90;;;;;;6192290;23;20020;-89
2022/06/15 11:22:24;;;;;;;4.22;1.60;;;19.90;99.90;;;;;;6165880;23;20051;-89
2022/06/15 11:25:12;;;;;;;2.55;1.30;;;20.00;99.90;;;;;;6168634;23;20051;-89
2022/06/15 11:28:21;;;;;;;3.83;1.20;;;20.10;99.90;;;;;;6171511;23;20056;-91
2022/06/15 11:31:29;;;;;;;4.53;1.63;;;20.10;99.90;;;;;;6196751;23;20024;-90
2022/06/15 12:22:10;;;;;;;4.20;1.45;;;19.90;97.60;;;;;;6312082;22;20047;-89
2022/06/15 12:24:47;;;;;;;2.95;1.50;;;20.10;96.90;;;;;;6258137;22;20042;-90
2022/06/15 12:27:41;;;;;;;2.90;1.30;;;20.30;96.60;;;;;;6258776;22;20090;-95
2022/06/15 12:30:26;;;;;;;3.55;1.52;;;20.30;95.80;;;;;;6258112;22;20019;-90
2022/06/15 12:33:24;;;;;;;2.28;1.15;;;20.30;95.90;;;;;;6257158;22;20318;-90
2022/06/15 12:36:14;;;;;;;2.72;1.13;;;20.20;95.00;;;;;;6259186;22;20011;-91
2022/06/15 12:39:04;;;;;;;2.80;1.27;;;20.30;95.90;;;;;;6284905;22;20023;-89
2022/06/15 12:44:54;;;;;;;;;;;20.60;95.30;;;;;;6282190;22;20408;-90
2022/06/15 12:58:29;;;;;;;2.38;1.17;;;21.00;93.40;;;;;;6222507;22;20027;-89
2022/06/15 13:01:17;;;;;;;2.97;1.30;;;21.00;92.30;;;;;;6194319;23;20024;-91
2022/06/15 13:04:17;;;;;;;2.03;0.90;;;21.10;92.70;;;;;;6194682;23;20013;-88
2022/06/15 13:06:43;;;;;;;2.25;1.10;;;21.20;92.40;;;;;;6192517;23;20017;-91
2022/06/15 13:09:14;;;;;;;2.28;0.90;;;21.30;92.90;;;;;;6219613;23;20412;-91
2022/06/15 13:11:58;;;;;;;3.65;1.50;;;21.40;92.00;;;;;;6222385;23;20020;-93
2022/06/15 13:14:28;;;;;;;2.22;1.20;;;21.50;91.10;;;;;;6219023;23;20030;-92
2022/06/15 13:17:03;;;;;;;3.90;1.20;;;21.50;90.90;;;;;;6219461;23;20474;-90
2022/06/15 13:19:48;;;;;;;3.75;1.20;;;21.50;90.20;;;;;;6217828;23;20430;-90
2022/06/15 13:27:43;;;;;;;2.50;1.10;;;21.70;88.40;;;;;;6219545;22;20024;-93
2022/06/15 13:30:43;;;;;;;3.03;0.90;;;21.80;87.10;;;;;;6213689;23;20466;-91
2022/06/15 13:33:09;;;;;;;3.88;1.27;;;21.80;85.10;;;;;;6188493;23;20415;-92
2022/06/15 13:35:38;;;;;;;2.80;1.23;;;21.70;84.20;;;;;;6219159;23;20017;-90
2022/06/15 13:38:27;;;;;;;4.90;1.10;;;21.70;83.30;;;;;;6215253;23;20019;-90
2022/06/15 13:40:53;;;;;;;2.85;1.10;;;21.70;80.90;;;;;;6193911;23;20020;-91
2022/06/15 13:43:20;;;;;;;2.42;1.10;;;21.70;82.70;;;;;;6220647;23;20012;-90
2022/06/15 13:45:46;;;;;;;2.92;1.15;;;21.70;81.40;;;;;;6223852;23;20020;-93
2022/06/15 13:48:17;;;;;;;1.38;0.70;;;21.60;80.90;;;;;;6196073;23;20017;-90
2022/06/15 13:50:45;;;;;;;1.73;0.82;;;21.50;80.40;;;;;;6190025;23;20462;-89
2022/06/15 13:56:30;;;;;;;2.80;1.10;;;21.50;77.70;;;;;;6177003;23;20098;-91
2022/06/15 13:59:21;;;;;;;3.85;1.25;;;21.50;78.00;;;;;;6221457;23;20012;-91
2022/06/15 14:02:10;;;;;;;;;;;21.40;77.40;;;;;;6193647;23;20095;-92
2022/06/15 14:05:01;;;;;;;3.03;1.10;;;21.50;77.00;;;;;;6215822;23;19951;-94
2022/06/15 14:07:46;;;;;;;3.45;0.98;;;21.50;78.40;;;;;;6191218;23;20023;-91
2022/06/15 14:10:34;;;;;;;2.75;0.95;;;21.60;78.60;;;;;;6191361;23;20016;-91
2022/06/15 14:13:18;;;;;;;3.38;0.90;;;21.70;77.30;;;;;;6213415;23;20397;-89
2022/06/15 14:16:22;;;;;;;3.08;0.90;;;21.60;74.90;;;;;;6214975;23;20017;-91
2022/06/15 14:19:01;;;;;;;1.67;0.77;;;21.60;75.20;;;;;;6190301;23;20047;-90
2022/06/15 14:21:38;;;;;;;2.03;0.80;;;21.60;75.80;;;;;;6215518;23;20020;-91
2022/06/15 14:24:25;;;;;;;1.80;0.93;;;21.60;76.90;;;;;;6191960;23;20024;-90
2022/06/15 14:26:52;;;;;;;2.78;0.90;;;21.50;75.30;;;;;;6215538;23;20403;-94
2022/06/15 14:29:19;;;;;;;2.03;1.00;;;21.50;76.00;;;;;;6192819;23;20027;-92
2022/06/15 14:31:52;;;;;;;2.53;1.00;;;21.50;75.90;;;;;;6217331;23;20019;-96
2022/06/15 14:34:24;;;;;;;2.17;0.90;;;21.50;74.50;;;;;;6189979;23;20021;-92
2022/06/15 14:37:10;;;;;;;2.60;0.80;;;21.40;74.90;;;;;;6192236;23;20017;-94
2022/06/15 14:39:44;;;;;;;1.55;0.93;;;21.40;73.90;;;;;;6217388;23;20020;-94
2022/06/15 14:42:26;;;;;;;2.13;1.00;;;21.30;74.90;;;;;;6215081;23;20013;-92
2022/06/15 14:44:59;;;;;;;2.10;0.98;;;21.30;74.60;;;;;;6190208;23;20016;-92
2022/06/15 14:47:28;;;;;;;2.22;0.90;;;21.30;74.50;;;;;;6189711;23;20015;-94
2022/06/15 14:49:56;;;;;;;1.55;0.82;;;21.20;74.10;;;;;;6189473;23;20378;-93
2022/06/15 14:52:28;;;;;;;2.30;0.90;;;21.20;74.50;;;;;;6214973;23;20027;-91
2022/06/15 14:55:05;;;;;;;2.40;1.00;;;21.20;73.80;;;;;;6190257;23;20062;-92
2022/06/15 14:57:38;;;;;;;2.30;1.13;;;21.10;74.20;;;;;;6190301;23;20027;-91
2022/06/15 15:00:24;;;;;;;2.47;0.93;;;21.10;74.70;;;;;;6191635;23;20461;-92
2022/06/15 15:02:53;;;;;;;2.40;1.00;;;21.10;73.30;;;;;;6215809;23;20036;-92
2022/06/15 15:05:25;;;;;;;2.05;0.80;;;21.10;74.50;;;;;;6189402;23;20043;-92
2022/06/15 15:08:17;;;;;;;3.65;1.20;;;21.10;73.80;;;;;;6195223;23;20017;-93
2022/06/15 15:10:53;;;;;;;2.28;0.90;;;21.00;72.80;;;;;;6214616;23;20024;-90
2022/06/15 15:13:38;;;;;;;2.03;0.90;;;21.00;74.30;;;;;;6211252;23;20512;-91
2022/06/15 15:16:27;;;;;;;2.25;0.70;;;20.90;74.10;;;;;;6188797;23;20056;-89
2022/06/15 15:18:57;;;;;;;2.78;0.80;;;20.90;73.40;;;;;;6189560;23;20400;-91
2022/06/15 15:21:33;;;;;;;2.15;0.80;;;20.80;74.10;;;;;;6189392;23;20017;-89
2022/06/15 15:24:26;;;;;;;3.03;1.40;;;20.80;74.40;;;;;;6213034;23;20048;-90
2022/06/15 15:27:09;;;;;;;2.58;1.00;;;20.70;72.10;;;;;;6214854;23;20062;-89
2022/06/15 15:35:33;;;;;;;2.20;1.00;;;20.60;73.90;;;;;;6190738;23;20016;-90
2022/06/15 15:38:17;;;;;;;3.83;1.33;;;20.60;74.70;;;;;;6188666;23;20048;-92
2022/06/15 15:40:48;;;;;;;3.83;1.00;;;20.60;74.10;;;;;;6188939;23;20023;-92
2022/06/15 15:43:14;;;;;;;2.08;0.95;;;20.60;74.80;;;;;;6163920;23;20071;-89
2022/06/15 15:45:40;;;;;;;1.75;0.85;;;20.50;74.40;;;;;;6189509;23;20012;-89
2022/06/15 15:48:06;;;;;;;2.50;0.95;;;20.40;73.90;;;;;;6189675;23;20021;-92
2022/06/15 15:50:33;;;;;;;1.52;0.80;;;20.40;74.50;;;;;;6188767;23;20021;-91
2022/06/15 15:52:59;;;;;;;2.08;0.80;;;20.40;74.60;;;;;;6191389;23;20016;-88
2022/06/15 15:55:29;;;;;;;2.88;1.05;;;20.40;73.90;;;;;;6188756;23;20020;-90
2022/06/15 15:57:55;;;;;;;2.38;1.10;;;20.40;74.90;;;;;;6163849;23;20019;-93
2022/06/15 16:00:25;;;;;;;2.22;0.98;;;20.30;75.10;;;;;;6188864;23;20025;-88
2022/06/15 16:02:55;;;;;;;3.15;1.17;;;20.30;74.90;;;;;;6188721;23;20029;-88
2022/06/15 16:05:22;;;;;;;2.90;1.20;;;20.30;75.20;;;;;;6188869;23;20354;-90
2022/06/15 16:07:49;;;;;;;2.33;0.90;;;20.30;75.00;;;;;;6163885;23;20512;-90
2022/06/15 16:10:22;;;;;;;2.08;0.80;;;20.20;75.10;;;;;;6188451;23;20023;-91
2022/06/15 16:12:48;;;;;;;3.05;1.10;;;20.20;75.30;;;;;;6214786;23;20027;-88
2022/06/15 16:15:14;;;;;;;2.10;1.00;;;20.20;75.00;;;;;;6188506;23;20044;-88
2022/06/15 16:17:42;;;;;;;1.77;0.82;;;20.10;75.00;;;;;;6188694;23;20051;-90
2022/06/15 16:20:12;;;;;;;2.67;1.05;;;20.10;75.10;;;;;;6163923;23;20019;-89
2022/06/15 16:22:39;;;;;;;2.15;0.90;;;20.20;75.20;;;;;;6165622;23;20016;-92
2022/06/15 16:25:13;;;;;;;1.98;0.90;;;20.10;75.30;;;;;;6167252;23;20024;-93
2022/06/15 16:27:41;;;;;;;2.80;1.10;;;20.10;74.00;;;;;;6171726;23;20026;-91
2022/06/15 16:30:09;;;;;;;2.50;0.85;;;20.00;75.20;;;;;;6220274;23;20059;-91
2022/06/15 16:32:35;;;;;;;3.25;1.13;;;20.00;75.50;;;;;;6200825;23;20020;-92
2022/06/15 16:35:01;;;;;;;2.53;1.10;;;20.00;75.50;;;;;;6224008;23;20073;-91
2022/06/15 16:37:27;;;;;;;1.83;1.02;;;20.00;74.60;;;;;;6222656;23;20020;-90
2022/06/15 16:39:53;;;;;;;2.22;0.90;;;19.80;75.30;;;;;;6223308;23;20016;-91
2022/06/15 16:42:19;;;;;;;3.45;1.55;;;19.80;75.70;;;;;;6247982;23;20023;-89
2022/06/15 16:44:45;;;;;;;2.63;1.02;;;19.80;75.60;;;;;;6220412;23;20023;-89
2022/06/15 16:47:11;;;;;;;2.80;0.90;;;19.80;76.20;;;;;;6193892;23;20100;-90
2022/06/15 16:49:37;;;;;;;2.53;1.17;;;19.80;76.40;;;;;;6194520;23;20008;-91
2022/06/15 16:52:03;;;;;;;3.30;1.00;;;19.70;76.70;;;;;;6221492;23;20056;-91
2022/06/15 16:54:31;;;;;;;2.30;0.80;;;19.70;77.00;;;;;;6195812;23;20066;-93
2022/06/15 16:56:56;;;;;;;2.67;1.00;;;19.70;76.90;;;;;;6221409;23;20016;-90
2022/06/15 16:59:32;;;;;;;2.65;1.00;;;19.70;77.20;;;;;;6221443;23;20155;-90
2022/06/15 17:01:58;;;;;;;1.67;0.85;;;19.70;76.50;;;;;;6221708;23;20433;-92
2022/06/15 17:04:25;;;;;;;3.00;0.88;;;19.70;77.60;;;;;;6220764;23;20052;-91
2022/06/15 17:06:56;;;;;;;2.63;0.95;;;19.60;77.10;;;;;;6196025;23;20030;-91
2022/06/15 17:09:23;;;;;;;3.90;1.17;;;19.60;77.20;;;;;;6196111;23;20018;-89
2022/06/15 17:11:50;;;;;;;;;;;19.60;77.30;;;;;;6220836;23;20012;-93
2022/06/15 17:14:17;;;;;;;1.83;1.08;;;19.50;77.60;;;;;;6220562;23;20248;-90
2022/06/15 17:16:43;;;;;;;2.67;0.98;;;19.50;77.40;;;;;;6196664;23;20016;-89
2022/06/15 17:19:10;;;;;;;3.45;1.05;;;19.40;77.90;;;;;;6221031;23;20119;-89
2022/06/15 17:21:40;;;;;;;2.28;1.10;;;19.40;77.40;;;;;;6246840;22;20070;-91
2022/06/15 17:24:06;;;;;;;2.60;0.90;;;19.30;78.00;;;;;;6220839;23;20397;-92
2022/06/15 17:26:35;;;;;;;2.05;1.00;;;19.20;77.60;;;;;;6220754;23;20070;-90
2022/06/15 17:29:03;;;;;;;3.30;1.23;;;19.20;77.60;;;;;;6198312;23;20043;-89
2022/06/15 17:31:31;;;;;;;2.90;1.10;;;19.10;78.30;;;;;;6193965;23;20020;-89
2022/06/15 17:33:57;;;;;;;2.45;1.00;;;19.10;79.00;;;;;;6217809;23;20063;-88
2022/06/15 17:36:23;;;;;;;2.30;1.00;;;19.10;79.20;;;;;;6219236;23;20020;-90
2022/06/15 17:38:50;;;;;;;;;;;19.10;79.30;;;;;;6247092;23;20019;-90
2022/06/15 17:41:20;;;;;;;2.55;1.10;;;19.10;79.10;;;;;;6195048;23;19945;-88
2022/06/15 17:43:46;;;;;;;2.45;1.02;;;19.10;79.50;;;;;;6247194;23;20023;-89
2022/06/15 17:46:12;;;;;;;2.40;0.93;;;19.00;78.80;;;;;;6220710;23;20025;-91
2022/06/15 17:48:38;;;;;;;3.53;0.90;;;19.00;79.10;;;;;;6220381;23;20024;-90
2022/06/15 17:51:04;;;;;;;2.30;0.90;;;19.00;78.90;;;;;;6220463;23;20111;-90
2022/06/15 17:53:30;;;;;;;2.35;1.23;;;19.00;78.80;;;;;;6220167;23;20023;-88
2022/06/15 17:55:57;;;;;;;2.85;1.08;;;18.90;79.00;;;;;;6220899;23;20020;-89
2022/06/15 17:58:23;;;;;;;2.13;1.02;;;18.80;79.50;;;;;;6221476;23;20024;-91
2022/06/15 18:00:49;;;;;;;;;;;18.70;79.70;;;;;;6221568;23;20020;-90
2022/06/15 18:03:16;;;;;;;3.25;1.30;;;18.60;79.90;;;;;;6221428;23;20257;-89
2022/06/15 18:05:42;;;;;;;3.70;1.70;;;18.50;80.80;;;;;;6220738;23;20025;-91
2022/06/15 18:08:08;;;;;;;3.75;1.48;;;18.50;81.80;;;;;;6221153;23;20027;-92
2022/06/15 18:10:35;;;;;;;2.33;1.05;;;18.40;82.50;;;;;;6219788;23;20460;-87
2022/06/15 18:13:02;;;;;;;4.03;1.30;;;18.40;83.30;;;;;;6245010;22;20020;-93
2022/06/15 18:18:11;;;;;;;4.20;1.90;;;18.30;85.50;;;;;;6259100;22;19915;-90
2022/06/15 18:20:39;;;;;;;4.05;1.80;;;18.30;85.60;;;;;;6243781;23;20024;-90
2022/06/15 18:23:09;;;;;;;3.95;1.90;;;18.20;85.80;;;;;;6218313;23;20024;-94
2022/06/15 18:25:35;;;;;;;3.92;2.03;;;18.20;86.70;;;;;;6244882;23;20346;-90
2022/06/15 18:28:01;;;;;;;5.22;2.28;;;18.20;87.50;;;;;;6244904;23;20115;-92
2022/06/15 18:30:27;;;;;;;5.43;1.75;;;18.20;88.50;;;;;;6244193;23;20465;-89
2022/06/15 18:32:53;;;;;;;;;;;18.20;88.90;;;;;;6244120;23;20019;-92
2022/06/15 18:35:28;;;;;;;3.83;1.65;;;18.20;90.20;;;;;;6245045;23;19915;-92
2022/06/15 18:37:55;;;;;;;4.15;1.70;;;18.10;89.70;;;;;;6245637;23;20022;-90
2022/06/15 18:40:21;;;;;;;2.88;1.33;;;18.10;90.10;;;;;;6220848;23;20091;-96
2022/06/15 18:42:51;;;;;;;3.38;1.60;;;18.10;90.50;;;;;;6245864;23;20307;-92
2022/06/15 18:48:01;;;;;;;6.40;2.28;;;18.10;91.30;;;;;;6246038;23;20020;-95
2022/06/15 18:50:28;;;;;;;3.83;1.70;;;18.00;91.50;;;;;;6221511;23;20016;-90
2022/06/15 18:52:58;;;;;;;;;;;18.00;91.70;;;;;;6245293;23;20012;-91
2022/06/15 18:55:27;;;;;;;3.22;1.75;;;18.00;92.90;;;;;;6245803;23;19955;-90
2022/06/15 18:57:56;;;;;;;3.35;1.67;;;17.90;92.70;;;;;;6219540;23;20024;-90
2022/06/15 19:00:24;;;;;;;4.40;1.73;;;17.90;93.20;;;;;;6219435;23;20026;-90
2022/06/15 19:02:52;;;;;;;4.38;1.75;;;17.90;93.60;;;;;;6219732;23;20023;-89
2022/06/15 19:05:21;;;;;;;4.00;1.85;;;17.90;93.60;;;;;;6220991;23;20069;-90
2022/06/15 19:07:49;;;;;;;3.80;1.90;;;17.80;94.30;;;;;;6222470;23;20051;-90
2022/06/15 19:10:15;;;;;;;4.30;2.00;;;17.80;94.60;;;;;;6220905;23;20020;-91
2022/06/15 19:12:42;;;;;;;4.45;1.88;;;17.70;95.10;;;;;;6245247;23;20350;-89
2022/06/15 19:15:11;;;;;;;3.60;1.73;;;17.70;95.80;;;;;;6221408;23;20016;-94
2022/06/15 19:17:37;;;;;;;4.45;1.92;;;17.60;96.20;;;;;;6220318;23;20012;-90
2022/06/15 19:20:06;;;;;;;4.45;1.92;;;17.60;96.40;;;;;;6216586;23;20335;-94
2022/06/15 19:22:32;;;;;;;4.60;1.77;;;17.60;96.70;;;;;;6217332;23;20008;-91
2022/06/15 19:24:59;;;;;;;;;;;17.50;96.90;;;;;;6219568;23;20027;-93
2022/06/15 19:27:27;;;;;;;3.85;1.85;;;17.40;97.30;;;;;;6244866;23;19915;-92
2022/06/15 19:29:53;;;;;;;4.80;2.20;;;17.30;97.10;;;;;;6244868;23;20027;-91
2022/06/15 19:32:29;;;;;;;5.40;2.40;;;17.30;97.30;;;;;;6244483;23;20048;-90
2022/06/15 19:34:56;;;;;;;5.18;2.50;;;17.10;98.10;;;;;;6219354;23;20018;-92
2022/06/15 19:37:22;;;;;;;4.88;2.50;;;17.10;98.70;;;;;;6219399;23;20016;-90
2022/06/15 19:39:48;;;;;;;4.03;2.30;;;17.10;99.00;;;;;;6219333;23;20070;-93
2022/06/15 19:42:14;;;;;;;5.15;2.58;;;17.10;99.40;;;;;;6219129;23;20016;-93
2022/06/15 19:44:40;;;;;;;;;;;17.00;99.80;;;;;;6219821;23;20024;-92
2022/06/15 19:47:06;;;;;;;5.72;2.85;;;17.00;99.90;;;;;;6296106;22;20036;-91
2022/06/15 19:49:32;;;;;;;4.75;2.30;;;16.90;99.90;;;;;;6219333;23;20058;-93
2022/06/15 19:52:26;;;;;;;4.72;2.40;;;16.90;99.90;;;;;;6245392;23;20013;-92